Katama — WBP4751 — position and weather

sailwx.info

Track history (hours):
 
Tides and Currents Weather Stations Pressure Air Temp Water Temp Dewpoint Dewpoint Depression Visibility Wind Speed Wind Dir Waves Ship Positions

Katama

Owner: WOODS HOLE, MARTHA'S VINEYARD AND NANTUCKET STEAMSHIP AUTHORITY, WOODS HOLE, MA. More information available from US FCC via Universal Licensing System and Coast Guard Vessel Documentation Center.

Last reported at 2015-Jan-25 05:19 UTC. Time now 2015-Jan-27 21:05 UTC.
Position N 41°39' W 070°17'.

Length 66 m; draft 3 m.

Type: Passenger vessel. MMSI: 367327330.

Date/timePositionNaut miles runAvg speedWind from/ knotsBaromVisibWave heightAir tempDewpointWater temp
2015-Jan-25 05:19N 41°39' W 070°17'23 0.7
2015-Jan-23 18:11N 41°17' W 070°06'23 0.6
2015-Jan-22 00:31N 41°39' W 070°17'0 0.0
2015-Jan-21 23:10N 41°39' W 070°17'0 0.0
2015-Jan-21 22:25N 41°39' W 070°17'0 0.0
2015-Jan-21 21:32N 41°39' W 070°17'23 6.8
2015-Jan-21 18:06N 41°17' W 070°06'6 0.2
2015-Jan-20 14:05N 41°23' W 070°09'  
2015-Jan-18 05:30N 41°39' W 070°17'0 0.0
2015-Jan-18 03:34N 41°39' W 070°17'0 0.0
2015-Jan-18 02:07N 41°39' W 070°17'0 0.0
2015-Jan-18 01:23N 41°39' W 070°17'0 0.0
2015-Jan-18 00:32N 41°39' W 070°17'0 0.0
2015-Jan-17 23:30N 41°39' W 070°17'0 0.0
2015-Jan-16 07:25N 41°39' W 070°17'0 0.0
2015-Jan-16 06:33N 41°39' W 070°17'0 0.0
2015-Jan-16 05:34N 41°39' W 070°17'0 0.0
2015-Jan-16 04:21N 41°39' W 070°17'0 0.0
2015-Jan-16 03:32N 41°39' W 070°17'0 0.0
2015-Jan-16 02:08N 41°39' W 070°17'0 0.0
2015-Jan-16 01:31N 41°39' W 070°17'0 0.0
2015-Jan-16 00:32N 41°39' W 070°17'2 0.2
2015-Jan-15 11:06N 41°37' W 070°18'2 2.5
2015-Jan-15 10:16N 41°39' W 070°17'0 0.0
2015-Jan-15 09:33N 41°39' W 070°17'0 0.0
2015-Jan-15 08:31N 41°39' W 070°17'0 0.0
2015-Jan-15 07:34N 41°39' W 070°17'0 0.0
2015-Jan-15 06:34N 41°39' W 070°17'0 0.0
2015-Jan-15 05:30N 41°39' W 070°17'  
Track history (hours):
 
Tides and Currents Weather Stations Pressure Air Temp Water Temp Dewpoint Dewpoint Depression Visibility Wind Speed Wind Dir Waves Ship Positions

Katama

Owner: WOODS HOLE, MARTHA'S VINEYARD AND NANTUCKET STEAMSHIP AUTHORITY, WOODS HOLE, MA. More information available from US FCC via Universal Licensing System and Coast Guard Vessel Documentation Center.

Last reported at 2015-Jan-25 05:19 UTC. Time now 2015-Jan-27 21:05 UTC.
Position N 41°39' W 070°17'.

Length 66 m; draft 3 m.

Type: Passenger vessel. MMSI: 367327330.

Date/timePositionNaut miles runAvg speedWind from/ knotsBaromVisibWave heightAir tempDewpointWater temp
2015-Jan-25 05:19N 41°39' W 070°17'23 0.7
2015-Jan-23 18:11N 41°17' W 070°06'23 0.6
2015-Jan-22 00:31N 41°39' W 070°17'0 0.0
2015-Jan-21 23:10N 41°39' W 070°17'0 0.0
2015-Jan-21 22:25N 41°39' W 070°17'0 0.0
2015-Jan-21 21:32N 41°39' W 070°17'23 6.8
2015-Jan-21 18:06N 41°17' W 070°06'6 0.2
2015-Jan-20 14:05N 41°23' W 070°09'  
2015-Jan-18 05:30N 41°39' W 070°17'0 0.0
2015-Jan-18 03:34N 41°39' W 070°17'0 0.0
2015-Jan-18 02:07N 41°39' W 070°17'0 0.0
2015-Jan-18 01:23N 41°39' W 070°17'0 0.0
2015-Jan-18 00:32N 41°39' W 070°17'0 0.0
2015-Jan-17 23:30N 41°39' W 070°17'0 0.0
2015-Jan-16 07:25N 41°39' W 070°17'0 0.0
2015-Jan-16 06:33N 41°39' W 070°17'0 0.0
2015-Jan-16 05:34N 41°39' W 070°17'0 0.0
2015-Jan-16 04:21N 41°39' W 070°17'0 0.0
2015-Jan-16 03:32N 41°39' W 070°17'0 0.0
2015-Jan-16 02:08N 41°39' W 070°17'0 0.0
2015-Jan-16 01:31N 41°39' W 070°17'0 0.0
2015-Jan-16 00:32N 41°39' W 070°17'2 0.2
2015-Jan-15 11:06N 41°37' W 070°18'2 2.5
2015-Jan-15 10:16N 41°39' W 070°17'0 0.0
2015-Jan-15 09:33N 41°39' W 070°17'0 0.0
2015-Jan-15 08:31N 41°39' W 070°17'0 0.0
2015-Jan-15 07:34N 41°39' W 070°17'0 0.0
2015-Jan-15 06:34N 41°39' W 070°17'0 0.0
2015-Jan-15 05:30N 41°39' W 070°17'  

Dump ship's entire track history